sensor_id;sensor_type;location;lat;lon;timestamp;temperature;humidity
68450;SHT30;55434;39.570;2.652;2022-08-06T00:00:50;27.88;70.84
68450;SHT30;55434;39.570;2.652;2022-08-06T00:03:16;27.82;70.87
68450;SHT30;55434;39.570;2.652;2022-08-06T00:05:41;27.82;71.00
68450;SHT30;55434;39.570;2.652;2022-08-06T00:08:07;27.89;70.64
68450;SHT30;55434;39.570;2.652;2022-08-06T00:10:32;27.92;70.52
68450;SHT30;55434;39.570;2.652;2022-08-06T00:12:58;27.87;70.54
68450;SHT30;55434;39.570;2.652;2022-08-06T00:15:24;27.95;70.08
68450;SHT30;55434;39.570;2.652;2022-08-06T00:17:49;28.12;69.53
68450;SHT30;55434;39.570;2.652;2022-08-06T00:20:18;27.98;69.26
68450;SHT30;55434;39.570;2.652;2022-08-06T00:22:44;27.84;69.37
68450;SHT30;55434;39.570;2.652;2022-08-06T00:25:09;27.74;69.84
68450;SHT30;55434;39.570;2.652;2022-08-06T00:27:36;27.72;70.12
68450;SHT30;55434;39.570;2.652;2022-08-06T00:30:03;27.69;70.44
68450;SHT30;55434;39.570;2.652;2022-08-06T00:32:29;27.68;70.50
68450;SHT30;55434;39.570;2.652;2022-08-06T00:34:54;27.69;70.60
68450;SHT30;55434;39.570;2.652;2022-08-06T00:37:23;27.71;70.59
68450;SHT30;55434;39.570;2.652;2022-08-06T00:39:48;27.72;70.77
68450;SHT30;55434;39.570;2.652;2022-08-06T00:42:14;27.71;70.86
68450;SHT30;55434;39.570;2.652;2022-08-06T00:44:40;27.67;71.05
68450;SHT30;55434;39.570;2.652;2022-08-06T00:47:05;27.62;71.15
68450;SHT30;55434;39.570;2.652;2022-08-06T00:49:31;27.59;71.20
68450;SHT30;55434;39.570;2.652;2022-08-06T00:51:56;27.59;71.17
68450;SHT30;55434;39.570;2.652;2022-08-06T00:54:22;27.62;70.96
68450;SHT30;55434;39.570;2.652;2022-08-06T00:56:47;27.64;70.90
68450;SHT30;55434;39.570;2.652;2022-08-06T00:59:13;27.59;71.00
68450;SHT30;55434;39.570;2.652;2022-08-06T01:01:39;27.58;71.08
68450;SHT30;55434;39.570;2.652;2022-08-06T01:04:04;27.59;70.92
68450;SHT30;55434;39.570;2.652;2022-08-06T01:06:30;27.62;70.83
68450;SHT30;55434;39.570;2.652;2022-08-06T01:08:55;27.59;70.52
68450;SHT30;55434;39.570;2.652;2022-08-06T01:11:21;27.57;70.32
68450;SHT30;55434;39.570;2.652;2022-08-06T01:13:47;27.62;69.72
68450;SHT30;55434;39.570;2.652;2022-08-06T01:16:37;27.61;69.14
68450;SHT30;55434;39.570;2.652;2022-08-06T01:27:58;27.48;69.61
68450;SHT30;55434;39.570;2.652;2022-08-06T01:30:30;27.44;70.19
68450;SHT30;55434;39.570;2.652;2022-08-06T01:33:07;27.41;70.07
68450;SHT30;55434;39.570;2.652;2022-08-06T01:35:38;27.33;70.06
68450;SHT30;55434;39.570;2.652;2022-08-06T01:38:08;27.24;69.73
68450;SHT30;55434;39.570;2.652;2022-08-06T01:40:37;27.18;69.62
68450;SHT30;55434;39.570;2.652;2022-08-06T01:43:06;27.22;69.49
68450;SHT30;55434;39.570;2.652;2022-08-06T01:45:33;27.10;69.39
68450;SHT30;55434;39.570;2.652;2022-08-06T01:48:14;27.06;69.61
68450;SHT30;55434;39.570;2.652;2022-08-06T01:50:45;27.04;69.61
68450;SHT30;55434;39.570;2.652;2022-08-06T01:53:13;26.99;69.64
68450;SHT30;55434;39.570;2.652;2022-08-06T01:55:43;27.04;69.61
68450;SHT30;55434;39.570;2.652;2022-08-06T01:58:11;27.14;69.67
68450;SHT30;55434;39.570;2.652;2022-08-06T02:00:41;27.06;69.38
68450;SHT30;55434;39.570;2.652;2022-08-06T02:03:14;27.04;69.47
68450;SHT30;55434;39.570;2.652;2022-08-06T02:05:43;27.03;69.56
68450;SHT30;55434;39.570;2.652;2022-08-06T02:08:10;27.02;69.56
68450;SHT30;55434;39.570;2.652;2022-08-06T02:10:37;27.03;69.31
68450;SHT30;55434;39.570;2.652;2022-08-06T02:13:04;27.07;69.25
68450;SHT30;55434;39.570;2.652;2022-08-06T02:15:32;27.04;69.02
68450;SHT30;55434;39.570;2.652;2022-08-06T02:18:02;27.04;68.85
68450;SHT30;55434;39.570;2.652;2022-08-06T02:20:34;27.03;69.00
68450;SHT30;55434;39.570;2.652;2022-08-06T02:23:02;27.03;68.70
68450;SHT30;55434;39.570;2.652;2022-08-06T02:25:30;27.00;65.61
68450;SHT30;55434;39.570;2.652;2022-08-06T02:27:58;26.99;65.43
68450;SHT30;55434;39.570;2.652;2022-08-06T02:30:25;27.02;65.88
68450;SHT30;55434;39.570;2.652;2022-08-06T02:32:53;26.96;65.83
68450;SHT30;55434;39.570;2.652;2022-08-06T02:35:18;26.97;66.15
68450;SHT30;55434;39.570;2.652;2022-08-06T02:37:59;27.02;66.37
68450;SHT30;55434;39.570;2.652;2022-08-06T02:40:34;27.06;66.31
68450;SHT30;55434;39.570;2.652;2022-08-06T02:43:01;27.04;66.22
68450;SHT30;55434;39.570;2.652;2022-08-06T02:45:43;27.17;66.67
68450;SHT30;55434;39.570;2.652;2022-08-06T02:48:42;27.16;67.26
68450;SHT30;55434;39.570;2.652;2022-08-06T02:51:12;27.11;67.21
68450;SHT30;55434;39.570;2.652;2022-08-06T02:53:48;27.02;67.09
68450;SHT30;55434;39.570;2.652;2022-08-06T02:56:21;26.95;66.88
68450;SHT30;55434;39.570;2.652;2022-08-06T02:58:49;26.86;65.60
68450;SHT30;55434;39.570;2.652;2022-08-06T03:01:23;26.78;66.49
68450;SHT30;55434;39.570;2.652;2022-08-06T03:03:52;26.71;67.20
68450;SHT30;55434;39.570;2.652;2022-08-06T03:06:20;26.69;67.37
68450;SHT30;55434;39.570;2.652;2022-08-06T03:08:47;26.73;67.40
68450;SHT30;55434;39.570;2.652;2022-08-06T03:11:13;26.59;66.81
68450;SHT30;55434;39.570;2.652;2022-08-06T03:13:41;26.49;66.18
68450;SHT30;55434;39.570;2.652;2022-08-06T03:16:09;26.42;66.04
68450;SHT30;55434;39.570;2.652;2022-08-06T03:18:36;26.29;65.43
68450;SHT30;55434;39.570;2.652;2022-08-06T03:21:02;26.22;64.97
68450;SHT30;55434;39.570;2.652;2022-08-06T03:23:29;26.22;65.08
68450;SHT30;55434;39.570;2.652;2022-08-06T03:25:57;26.25;64.73
68450;SHT30;55434;39.570;2.652;2022-08-06T03:28:24;26.28;63.81
68450;SHT30;55434;39.570;2.652;2022-08-06T03:30:51;26.41;63.25
68450;SHT30;55434;39.570;2.652;2022-08-06T03:33:18;26.45;62.90
68450;SHT30;55434;39.570;2.652;2022-08-06T03:35:44;26.45;62.62
68450;SHT30;55434;39.570;2.652;2022-08-06T03:38:11;26.51;62.76
68450;SHT30;55434;39.570;2.652;2022-08-06T03:40:39;26.48;62.42
68450;SHT30;55434;39.570;2.652;2022-08-06T03:43:07;26.53;62.32
68450;SHT30;55434;39.570;2.652;2022-08-06T03:45:37;26.56;62.10
68450;SHT30;55434;39.570;2.652;2022-08-06T03:48:05;26.62;62.31
68450;SHT30;55434;39.570;2.652;2022-08-06T03:50:40;26.63;61.94
68450;SHT30;55434;39.570;2.652;2022-08-06T03:53:11;26.60;62.30
68450;SHT30;55434;39.570;2.652;2022-08-06T03:55:38;26.66;62.73
68450;SHT30;55434;39.570;2.652;2022-08-06T03:58:09;26.62;62.88
68450;SHT30;55434;39.570;2.652;2022-08-06T04:00:46;26.62;62.95
68450;SHT30;55434;39.570;2.652;2022-08-06T04:03:14;26.63;63.04
68450;SHT30;55434;39.570;2.652;2022-08-06T04:05:41;26.62;63.34
68450;SHT30;55434;39.570;2.652;2022-08-06T04:08:08;26.65;63.42
68450;SHT30;55434;39.570;2.652;2022-08-06T04:10:41;26.72;63.56
68450;SHT30;55434;39.570;2.652;2022-08-06T04:13:09;26.69;63.19
68450;SHT30;55434;39.570;2.652;2022-08-06T04:15:36;26.69;63.14
68450;SHT30;55434;39.570;2.652;2022-08-06T04:18:04;26.65;62.95
68450;SHT30;55434;39.570;2.652;2022-08-06T04:20:33;26.65;62.02
68450;SHT30;55434;39.570;2.652;2022-08-06T04:22:59;26.69;61.27
68450;SHT30;55434;39.570;2.652;2022-08-06T04:25:27;26.73;60.90
68450;SHT30;55434;39.570;2.652;2022-08-06T04:27:54;26.82;61.43
68450;SHT30;55434;39.570;2.652;2022-08-06T04:30:24;26.82;61.27
68450;SHT30;55434;39.570;2.652;2022-08-06T04:32:54;26.82;60.79
68450;SHT30;55434;39.570;2.652;2022-08-06T04:35:20;26.86;60.74
68450;SHT30;55434;39.570;2.652;2022-08-06T04:37:47;26.89;60.65
68450;SHT30;55434;39.570;2.652;2022-08-06T04:40:13;26.89;61.63
68450;SHT30;55434;39.570;2.652;2022-08-06T04:42:39;26.86;60.76
68450;SHT30;55434;39.570;2.652;2022-08-06T04:45:07;26.92;61.70
68450;SHT30;55434;39.570;2.652;2022-08-06T04:47:34;26.97;60.94
68450;SHT30;55434;39.570;2.652;2022-08-06T04:50:01;27.03;60.68
68450;SHT30;55434;39.570;2.652;2022-08-06T04:52:28;27.07;60.67
68450;SHT30;55434;39.570;2.652;2022-08-06T04:54:53;27.11;60.81
68450;SHT30;55434;39.570;2.652;2022-08-06T04:57:19;27.04;61.35
68450;SHT30;55434;39.570;2.652;2022-08-06T04:59:45;26.97;61.45
68450;SHT30;55434;39.570;2.652;2022-08-06T05:02:11;27.03;61.76
68450;SHT30;55434;39.570;2.652;2022-08-06T05:04:37;27.03;62.20
68450;SHT30;55434;39.570;2.652;2022-08-06T05:07:27;27.08;62.42
68450;SHT30;55434;39.570;2.652;2022-08-06T05:09:55;27.14;62.07
68450;SHT30;55434;39.570;2.652;2022-08-06T05:12:26;27.08;62.01
68450;SHT30;55434;39.570;2.652;2022-08-06T05:17:48;27.22;62.17
68450;SHT30;55434;39.570;2.652;2022-08-06T05:20:19;27.16;62.29
68450;SHT30;55434;39.570;2.652;2022-08-06T05:22:48;27.16;62.70
68450;SHT30;55434;39.570;2.652;2022-08-06T05:25:15;27.16;63.42
68450;SHT30;55434;39.570;2.652;2022-08-06T05:27:41;27.16;63.78
68450;SHT30;55434;39.570;2.652;2022-08-06T05:30:07;27.10;64.69
68450;SHT30;55434;39.570;2.652;2022-08-06T05:32:41;27.03;65.32
68450;SHT30;55434;39.570;2.652;2022-08-06T05:35:07;26.97;65.42
68450;SHT30;55434;39.570;2.652;2022-08-06T05:37:32;26.93;65.22
68450;SHT30;55434;39.570;2.652;2022-08-06T05:39:58;26.96;64.93
68450;SHT30;55434;39.570;2.652;2022-08-06T05:42:23;26.97;64.72
68450;SHT30;55434;39.570;2.652;2022-08-06T05:44:49;26.97;64.48
68450;SHT30;55434;39.570;2.652;2022-08-06T05:47:19;27.06;64.71
68450;SHT30;55434;39.570;2.652;2022-08-06T05:49:49;27.20;63.92
68450;SHT30;55434;39.570;2.652;2022-08-06T05:52:26;27.34;63.54
68450;SHT30;55434;39.570;2.652;2022-08-06T06:00:04;27.62;61.72
68450;SHT30;55434;39.570;2.652;2022-08-06T06:02:36;27.68;59.91
68450;SHT30;55434;39.570;2.652;2022-08-06T06:05:04;27.78;60.71
68450;SHT30;55434;39.570;2.652;2022-08-06T06:07:31;27.67;59.51
68450;SHT30;55434;39.570;2.652;2022-08-06T06:09:57;27.62;59.98
68450;SHT30;55434;39.570;2.652;2022-08-06T06:12:23;27.54;59.40
68450;SHT30;55434;39.570;2.652;2022-08-06T06:14:50;27.61;59.89
68450;SHT30;55434;39.570;2.652;2022-08-06T06:22:55;27.80;59.17
68450;SHT30;55434;39.570;2.652;2022-08-06T06:25:27;27.81;58.84
68450;SHT30;55434;39.570;2.652;2022-08-06T06:28:00;27.81;58.92
68450;SHT30;55434;39.570;2.652;2022-08-06T06:30:44;27.77;59.55
68450;SHT30;55434;39.570;2.652;2022-08-06T06:35:54;27.88;59.48
68450;SHT30;55434;39.570;2.652;2022-08-06T06:38:31;27.92;59.17
68450;SHT30;55434;39.570;2.652;2022-08-06T06:41:09;28.04;59.03
68450;SHT30;55434;39.570;2.652;2022-08-06T06:43:46;28.06;58.98
68450;SHT30;55434;39.570;2.652;2022-08-06T06:46:28;28.15;58.12
68450;SHT30;55434;39.570;2.652;2022-08-06T06:49:01;28.19;56.56
68450;SHT30;55434;39.570;2.652;2022-08-06T06:51:33;28.22;57.20
68450;SHT30;55434;39.570;2.652;2022-08-06T06:54:01;28.31;57.11
68450;SHT30;55434;39.570;2.652;2022-08-06T06:56:34;28.36;55.48
68450;SHT30;55434;39.570;2.652;2022-08-06T06:59:06;28.45;53.19
68450;SHT30;55434;39.570;2.652;2022-08-06T07:01:34;28.47;54.72
68450;SHT30;55434;39.570;2.652;2022-08-06T07:04:02;28.50;52.08
68450;SHT30;55434;39.570;2.652;2022-08-06T07:06:30;28.64;51.63
68450;SHT30;55434;39.570;2.652;2022-08-06T07:08:56;28.67;52.19
68450;SHT30;55434;39.570;2.652;2022-08-06T07:11:24;28.71;53.86
68450;SHT30;55434;39.570;2.652;2022-08-06T07:13:54;28.81;52.14
68450;SHT30;55434;39.570;2.652;2022-08-06T07:16:22;28.93;51.71
68450;SHT30;55434;39.570;2.652;2022-08-06T07:18:49;29.10;51.77
68450;SHT30;55434;39.570;2.652;2022-08-06T07:21:17;29.08;52.89
68450;SHT30;55434;39.570;2.652;2022-08-06T07:23:49;29.12;52.36
68450;SHT30;55434;39.570;2.652;2022-08-06T07:26:18;29.14;52.22
68450;SHT30;55434;39.570;2.652;2022-08-06T07:28:46;29.21;52.39
68450;SHT30;55434;39.570;2.652;2022-08-06T07:31:12;29.25;51.92
68450;SHT30;55434;39.570;2.652;2022-08-06T07:33:40;29.35;51.60
68450;SHT30;55434;39.570;2.652;2022-08-06T07:36:07;29.48;49.52
68450;SHT30;55434;39.570;2.652;2022-08-06T07:38:35;29.54;50.85
68450;SHT30;55434;39.570;2.652;2022-08-06T07:41:04;29.52;50.46
68450;SHT30;55434;39.570;2.652;2022-08-06T07:43:54;29.62;50.70
68450;SHT30;55434;39.570;2.652;2022-08-06T07:46:26;29.73;50.19
68450;SHT30;55434;39.570;2.652;2022-08-06T07:48:55;29.72;50.16
68450;SHT30;55434;39.570;2.652;2022-08-06T07:51:28;29.69;50.11
68450;SHT30;55434;39.570;2.652;2022-08-06T07:53:55;29.72;49.06
68450;SHT30;55434;39.570;2.652;2022-08-06T07:56:21;29.73;48.97
68450;SHT30;55434;39.570;2.652;2022-08-06T07:58:48;29.83;49.06
68450;SHT30;55434;39.570;2.652;2022-08-06T08:01:16;29.81;49.18
68450;SHT30;55434;39.570;2.652;2022-08-06T08:03:43;29.99;47.18
68450;SHT30;55434;39.570;2.652;2022-08-06T08:06:28;30.09;46.92
68450;SHT30;55434;39.570;2.652;2022-08-06T08:09:07;30.20;46.82
68450;SHT30;55434;39.570;2.652;2022-08-06T08:11:34;30.22;47.03
68450;SHT30;55434;39.570;2.652;2022-08-06T08:14:07;30.27;47.50
68450;SHT30;55434;39.570;2.652;2022-08-06T08:16:33;30.39;46.80
68450;SHT30;55434;39.570;2.652;2022-08-06T08:19:00;30.36;46.68
68450;SHT30;55434;39.570;2.652;2022-08-06T08:21:28;30.37;46.15
68450;SHT30;55434;39.570;2.652;2022-08-06T08:23:55;30.41;45.13
68450;SHT30;55434;39.570;2.652;2022-08-06T08:26:21;30.45;44.74
68450;SHT30;55434;39.570;2.652;2022-08-06T08:28:46;30.51;44.73
68450;SHT30;55434;39.570;2.652;2022-08-06T08:31:12;30.54;44.44
68450;SHT30;55434;39.570;2.652;2022-08-06T08:33:40;30.54;44.10
68450;SHT30;55434;39.570;2.652;2022-08-06T08:36:06;30.54;43.43
68450;SHT30;55434;39.570;2.652;2022-08-06T08:38:33;30.54;44.29
68450;SHT30;55434;39.570;2.652;2022-08-06T08:41:03;30.63;42.73
68450;SHT30;55434;39.570;2.652;2022-08-06T08:43:34;30.83;40.44
68450;SHT30;55434;39.570;2.652;2022-08-06T08:46:02;30.87;40.16
68450;SHT30;55434;39.570;2.652;2022-08-06T08:48:29;30.85;40.79
68450;SHT30;55434;39.570;2.652;2022-08-06T08:50:59;31.01;41.38
68450;SHT30;55434;39.570;2.652;2022-08-06T08:53:37;31.05;40.31
68450;SHT30;55434;39.570;2.652;2022-08-06T08:56:05;31.08;39.95
68450;SHT30;55434;39.570;2.652;2022-08-06T08:58:32;31.10;39.84
68450;SHT30;55434;39.570;2.652;2022-08-06T09:01:02;31.10;39.76
68450;SHT30;55434;39.570;2.652;2022-08-06T09:03:28;31.16;42.56
68450;SHT30;55434;39.570;2.652;2022-08-06T09:05:54;31.07;42.78
68450;SHT30;55434;39.570;2.652;2022-08-06T09:08:22;31.08;42.64
68450;SHT30;55434;39.570;2.652;2022-08-06T09:10:51;31.14;42.37
68450;SHT30;55434;39.570;2.652;2022-08-06T09:13:16;31.21;42.14
68450;SHT30;55434;39.570;2.652;2022-08-06T09:15:42;31.38;40.93
68450;SHT30;55434;39.570;2.652;2022-08-06T09:18:07;31.43;39.49
68450;SHT30;55434;39.570;2.652;2022-08-06T09:20:34;31.50;39.41
68450;SHT30;55434;39.570;2.652;2022-08-06T09:23:01;31.56;38.72
68450;SHT30;55434;39.570;2.652;2022-08-06T09:25:41;31.63;36.34
68450;SHT30;55434;39.570;2.652;2022-08-06T09:28:35;31.86;40.50
68450;SHT30;55434;39.570;2.652;2022-08-06T09:33:37;32.00;39.53
68450;SHT30;55434;39.570;2.652;2022-08-06T09:36:10;32.14;38.33
68450;SHT30;55434;39.570;2.652;2022-08-06T09:39:01;32.24;38.83
68450;SHT30;55434;39.570;2.652;2022-08-06T09:41:30;32.27;38.45
68450;SHT30;55434;39.570;2.652;2022-08-06T09:43:58;32.24;39.10
68450;SHT30;55434;39.570;2.652;2022-08-06T09:46:47;32.50;38.11
68450;SHT30;55434;39.570;2.652;2022-08-06T09:49:17;32.57;38.29
68450;SHT30;55434;39.570;2.652;2022-08-06T09:51:44;32.77;37.47
68450;SHT30;55434;39.570;2.652;2022-08-06T09:54:11;32.96;37.02
68450;SHT30;55434;39.570;2.652;2022-08-06T09:56:44;33.09;36.78
68450;SHT30;55434;39.570;2.652;2022-08-06T09:59:12;33.12;36.19
68450;SHT30;55434;39.570;2.652;2022-08-06T10:04:13;33.12;37.28
68450;SHT30;55434;39.570;2.652;2022-08-06T10:06:55;33.30;37.14
68450;SHT30;55434;39.570;2.652;2022-08-06T10:09:21;33.43;36.30
68450;SHT30;55434;39.570;2.652;2022-08-06T10:11:49;33.46;36.32
68450;SHT30;55434;39.570;2.652;2022-08-06T10:14:29;33.52;35.79
68450;SHT30;55434;39.570;2.652;2022-08-06T10:17:20;33.72;34.75
68450;SHT30;55434;39.570;2.652;2022-08-06T10:20:08;33.94;35.28
68450;SHT30;55434;39.570;2.652;2022-08-06T10:22:35;34.00;34.79
68450;SHT30;55434;39.570;2.652;2022-08-06T10:25:02;34.03;35.82
68450;SHT30;55434;39.570;2.652;2022-08-06T10:27:33;34.25;35.51
68450;SHT30;55434;39.570;2.652;2022-08-06T10:30:10;34.44;33.91
68450;SHT30;55434;39.570;2.652;2022-08-06T10:32:43;34.61;34.77
68450;SHT30;55434;39.570;2.652;2022-08-06T10:35:11;34.48;35.18
68450;SHT30;55434;39.570;2.652;2022-08-06T10:37:43;34.58;35.07
68450;SHT30;55434;39.570;2.652;2022-08-06T10:40:12;34.57;34.08
68450;SHT30;55434;39.570;2.652;2022-08-06T10:42:40;34.78;33.23
68450;SHT30;55434;39.570;2.652;2022-08-06T10:45:10;35.18;33.92
68450;SHT30;55434;39.570;2.652;2022-08-06T10:47:39;36.76;31.56
68450;SHT30;55434;39.570;2.652;2022-08-06T10:50:07;37.42;30.78
68450;SHT30;55434;39.570;2.652;2022-08-06T10:52:35;37.97;30.16
68450;SHT30;55434;39.570;2.652;2022-08-06T10:55:04;38.55;29.07
68450;SHT30;55434;39.570;2.652;2022-08-06T10:57:30;38.62;28.83
68450;SHT30;55434;39.570;2.652;2022-08-06T10:59:57;39.24;27.99
68450;SHT30;55434;39.570;2.652;2022-08-06T11:05:15;40.07;27.70
68450;SHT30;55434;39.570;2.652;2022-08-06T11:08:11;40.21;26.84
68450;SHT30;55434;39.570;2.652;2022-08-06T11:16:55;40.59;27.00
68450;SHT30;55434;39.570;2.652;2022-08-06T11:19:37;40.46;26.97
68450;SHT30;55434;39.570;2.652;2022-08-06T11:22:04;40.25;27.09
68450;SHT30;55434;39.570;2.652;2022-08-06T11:24:31;40.45;27.26
68450;SHT30;55434;39.570;2.652;2022-08-06T11:26:56;40.34;27.25
68450;SHT30;55434;39.570;2.652;2022-08-06T11:29:22;39.64;28.27
68450;SHT30;55434;39.570;2.652;2022-08-06T11:31:49;39.80;27.63
68450;SHT30;55434;39.570;2.652;2022-08-06T11:34:18;40.02;29.07
68450;SHT30;55434;39.570;2.652;2022-08-06T11:36:55;40.54;28.60
68450;SHT30;55434;39.570;2.652;2022-08-06T11:39:24;40.70;28.44
68450;SHT30;55434;39.570;2.652;2022-08-06T11:42:00;40.12;30.56
68450;SHT30;55434;39.570;2.652;2022-08-06T11:44:32;40.25;32.44
68450;SHT30;55434;39.570;2.652;2022-08-06T11:49:41;39.17;33.16
68450;SHT30;55434;39.570;2.652;2022-08-06T11:52:07;39.06;33.43
68450;SHT30;55434;39.570;2.652;2022-08-06T11:54:59;39.39;33.06
68450;SHT30;55434;39.570;2.652;2022-08-06T11:57:26;38.29;37.94
68450;SHT30;55434;39.570;2.652;2022-08-06T12:02:51;37.63;41.33
68450;SHT30;55434;39.570;2.652;2022-08-06T12:10:35;36.85;43.77
68450;SHT30;55434;39.570;2.652;2022-08-06T12:13:01;37.34;42.65
68450;SHT30;55434;39.570;2.652;2022-08-06T12:18:01;37.36;43.12
68450;SHT30;55434;39.570;2.652;2022-08-06T12:20:41;37.06;44.41
68450;SHT30;55434;39.570;2.652;2022-08-06T12:23:08;37.02;43.43
68450;SHT30;55434;39.570;2.652;2022-08-06T12:25:39;36.93;43.72
68450;SHT30;55434;39.570;2.652;2022-08-06T12:28:07;36.38;44.99
68450;SHT30;55434;39.570;2.652;2022-08-06T12:30:47;36.55;45.38
68450;SHT30;55434;39.570;2.652;2022-08-06T12:33:13;36.55;45.56
68450;SHT30;55434;39.570;2.652;2022-08-06T12:35:59;36.96;44.93
68450;SHT30;55434;39.570;2.652;2022-08-06T12:38:30;36.69;45.48
68450;SHT30;55434;39.570;2.652;2022-08-06T12:41:08;36.58;45.64
68450;SHT30;55434;39.570;2.652;2022-08-06T12:43:35;36.89;45.17
68450;SHT30;55434;39.570;2.652;2022-08-06T12:46:03;36.95;45.22
68450;SHT30;55434;39.570;2.652;2022-08-06T12:48:34;36.53;46.35
68450;SHT30;55434;39.570;2.652;2022-08-06T12:51:05;36.47;46.99
68450;SHT30;55434;39.570;2.652;2022-08-06T12:53:31;36.24;47.55
68450;SHT30;55434;39.570;2.652;2022-08-06T12:55:58;36.67;46.82
68450;SHT30;55434;39.570;2.652;2022-08-06T12:58:33;36.25;46.51
68450;SHT30;55434;39.570;2.652;2022-08-06T13:01:00;36.28;46.02
68450;SHT30;55434;39.570;2.652;2022-08-06T13:03:27;36.28;46.11
68450;SHT30;55434;39.570;2.652;2022-08-06T13:05:57;36.14;46.06
68450;SHT30;55434;39.570;2.652;2022-08-06T13:08:24;36.24;46.02
68450;SHT30;55434;39.570;2.652;2022-08-06T13:10:52;36.31;46.52
68450;SHT30;55434;39.570;2.652;2022-08-06T13:13:18;36.68;46.20
68450;SHT30;55434;39.570;2.652;2022-08-06T13:16:02;36.34;45.89
68450;SHT30;55434;39.570;2.652;2022-08-06T13:18:28;36.51;45.68
68450;SHT30;55434;39.570;2.652;2022-08-06T13:20:54;36.34;46.35
68450;SHT30;55434;39.570;2.652;2022-08-06T13:23:35;36.51;46.02
68450;SHT30;55434;39.570;2.652;2022-08-06T13:29:09;36.31;46.43
68450;SHT30;55434;39.570;2.652;2022-08-06T13:31:36;36.27;46.33
68450;SHT30;55434;39.570;2.652;2022-08-06T13:34:05;36.11;46.95
68450;SHT30;55434;39.570;2.652;2022-08-06T13:36:32;36.02;46.90
68450;SHT30;55434;39.570;2.652;2022-08-06T13:39:24;36.55;45.34
68450;SHT30;55434;39.570;2.652;2022-08-06T13:44:31;36.27;45.44
68450;SHT30;55434;39.570;2.652;2022-08-06T13:46:57;35.96;46.11
68450;SHT30;55434;39.570;2.652;2022-08-06T13:49:23;36.16;46.10
68450;SHT30;55434;39.570;2.652;2022-08-06T13:51:49;36.31;45.82
68450;SHT30;55434;39.570;2.652;2022-08-06T13:54:15;35.69;46.66
68450;SHT30;55434;39.570;2.652;2022-08-06T13:56:40;35.61;46.83
68450;SHT30;55434;39.570;2.652;2022-08-06T13:59:06;35.45;47.62
68450;SHT30;55434;39.570;2.652;2022-08-06T14:01:32;35.45;48.02
68450;SHT30;55434;39.570;2.652;2022-08-06T14:03:58;35.63;47.52
68450;SHT30;55434;39.570;2.652;2022-08-06T14:06:24;35.50;48.46
68450;SHT30;55434;39.570;2.652;2022-08-06T14:08:49;35.47;48.34
68450;SHT30;55434;39.570;2.652;2022-08-06T14:11:15;35.09;48.77
68450;SHT30;55434;39.570;2.652;2022-08-06T14:13:40;35.26;48.24
68450;SHT30;55434;39.570;2.652;2022-08-06T14:16:06;35.22;47.99
68450;SHT30;55434;39.570;2.652;2022-08-06T14:18:32;35.46;47.83
68450;SHT30;55434;39.570;2.652;2022-08-06T14:20:57;34.82;49.62
68450;SHT30;55434;39.570;2.652;2022-08-06T14:23:23;34.77;49.66
68450;SHT30;55434;39.570;2.652;2022-08-06T14:25:49;34.54;50.49
68450;SHT30;55434;39.570;2.652;2022-08-06T14:28:15;34.64;49.99
68450;SHT30;55434;39.570;2.652;2022-08-06T14:30:42;34.68;50.10
68450;SHT30;55434;39.570;2.652;2022-08-06T14:33:09;34.77;49.33
68450;SHT30;55434;39.570;2.652;2022-08-06T14:35:35;35.02;49.56
68450;SHT30;55434;39.570;2.652;2022-08-06T14:38:03;34.94;49.48
68450;SHT30;55434;39.570;2.652;2022-08-06T14:40:29;34.94;49.29
68450;SHT30;55434;39.570;2.652;2022-08-06T14:43:13;35.39;48.31
68450;SHT30;55434;39.570;2.652;2022-08-06T14:45:57;35.46;49.02
68450;SHT30;55434;39.570;2.652;2022-08-06T14:48:23;35.35;49.41
68450;SHT30;55434;39.570;2.652;2022-08-06T14:50:48;35.91;48.43
68450;SHT30;55434;39.570;2.652;2022-08-06T14:53:14;35.89;48.91
68450;SHT30;55434;39.570;2.652;2022-08-06T14:55:40;36.25;48.25
68450;SHT30;55434;39.570;2.652;2022-08-06T14:58:05;36.76;47.35
68450;SHT30;55434;39.570;2.652;2022-08-06T15:00:31;36.93;47.32
68450;SHT30;55434;39.570;2.652;2022-08-06T15:02:56;36.62;48.23
68450;SHT30;55434;39.570;2.652;2022-08-06T15:05:22;36.88;48.18
68450;SHT30;55434;39.570;2.652;2022-08-06T15:07:48;36.31;49.45
68450;SHT30;55434;39.570;2.652;2022-08-06T15:10:13;35.89;50.44
68450;SHT30;55434;39.570;2.652;2022-08-06T15:12:39;35.63;51.31
68450;SHT30;55434;39.570;2.652;2022-08-06T15:15:05;35.97;51.06
68450;SHT30;55434;39.570;2.652;2022-08-06T15:17:31;36.47;49.76
68450;SHT30;55434;39.570;2.652;2022-08-06T15:19:58;36.34;50.80
68450;SHT30;55434;39.570;2.652;2022-08-06T15:22:23;36.47;50.94
68450;SHT30;55434;39.570;2.652;2022-08-06T15:24:49;36.19;51.64
68450;SHT30;55434;39.570;2.652;2022-08-06T15:27:15;36.10;51.59
68450;SHT30;55434;39.570;2.652;2022-08-06T15:29:45;36.19;52.15
68450;SHT30;55434;39.570;2.652;2022-08-06T15:32:11;36.25;51.67
68450;SHT30;55434;39.570;2.652;2022-08-06T15:34:37;36.12;52.45
68450;SHT30;55434;39.570;2.652;2022-08-06T15:37:03;36.31;52.04
68450;SHT30;55434;39.570;2.652;2022-08-06T15:39:31;36.10;52.65
68450;SHT30;55434;39.570;2.652;2022-08-06T15:42:00;35.96;52.80
68450;SHT30;55434;39.570;2.652;2022-08-06T15:44:26;35.90;53.17
68450;SHT30;55434;39.570;2.652;2022-08-06T15:46:52;36.00;53.00
68450;SHT30;55434;39.570;2.652;2022-08-06T15:49:17;36.10;52.87
68450;SHT30;55434;39.570;2.652;2022-08-06T15:51:43;36.51;51.83
68450;SHT30;55434;39.570;2.652;2022-08-06T15:54:09;35.79;52.69
68450;SHT30;55434;39.570;2.652;2022-08-06T15:56:35;35.83;52.15
68450;SHT30;55434;39.570;2.652;2022-08-06T15:59:01;35.45;53.02
68450;SHT30;55434;39.570;2.652;2022-08-06T16:01:27;35.28;53.75
68450;SHT30;55434;39.570;2.652;2022-08-06T16:03:52;35.56;53.11
68450;SHT30;55434;39.570;2.652;2022-08-06T16:06:18;35.84;52.58
68450;SHT30;55434;39.570;2.652;2022-08-06T16:08:43;36.05;52.28
68450;SHT30;55434;39.570;2.652;2022-08-06T16:11:10;35.90;52.46
68450;SHT30;55434;39.570;2.652;2022-08-06T16:13:36;35.57;53.30
68450;SHT30;55434;39.570;2.652;2022-08-06T16:16:02;35.70;52.83
68450;SHT30;55434;39.570;2.652;2022-08-06T16:18:27;35.43;53.74
68450;SHT30;55434;39.570;2.652;2022-08-06T16:20:56;35.69;52.90
68450;SHT30;55434;39.570;2.652;2022-08-06T16:23:22;35.63;52.77
68450;SHT30;55434;39.570;2.652;2022-08-06T16:25:48;35.47;52.74
68450;SHT30;55434;39.570;2.652;2022-08-06T16:28:13;35.36;52.85
68450;SHT30;55434;39.570;2.652;2022-08-06T16:30:39;35.63;52.04
68450;SHT30;55434;39.570;2.652;2022-08-06T16:33:04;35.28;52.86
68450;SHT30;55434;39.570;2.652;2022-08-06T16:35:30;35.35;52.94
68450;SHT30;55434;39.570;2.652;2022-08-06T16:37:55;35.42;53.26
68450;SHT30;55434;39.570;2.652;2022-08-06T16:40:23;35.70;52.25